Griffiss International Airport
KRME : rendu visible

Aérodrome :











RETROUVEZ-NOUS SUR...

 
LOGIN :

S'inscrire | Disclaimer

   EN    FR    IT 

 









Légende :    VFR   VFR Marginal   IFR   IFR Intensif   IFR Très Intensif
Visi : 
Plafond : 
>= 8 km
>= 3000ft
5 à 8 km
1000 à 3000 ft
1500m à 5 km
500 à 1000 ft
800 à 1500m
200 à 500 ft
< 800m
< 200 ft
Symboles :   Orages  Brouillard  Fortes neiges  Fortes précipitations  Vent > 20 kt






- Altitude de l'aérodrome : 504 ft


KRME - Griffiss International

DERNIER METAR :
  • 191803Z 28016G24KT 9SM FEW019 SCT024 OVC060 M04/M07 A2979 RMK AO2 T10391067

METARs EXPIRÉS :
  • 191713Z 30013G22KT 10SM BKN022 BKN029 OVC050 M03/M05 A2976 RMK AO2 T10281050
  • 191653Z 29017G24KT 10SM SCT021 SCT027 OVC055 M02/M05 A2975 RMK AO2 PK WND 31027/1603 SLP079 T10221050
  • 191553Z 31017G21KT 10SM OVC042 M01/M03 A2974 RMK AO2 SNE11B29E41 SLP074 P0000 T10111033
  • 191517Z 29014G25KT 9SM FEW011 BKN037 OVC050 M01/M03 A2972 RMK AO2 SNE11 P0000 T10061028

TAF KRME
Valide du 19 à 18h jusqu'au 20 à 18h UTC


191720Z 1918/2018 31014G22KT P6SM SCT025 OVC035
TEMPO 1922/2002 4SM -SHSN BR FEW015 BKN022
FM200200 30009KT P6SM SCT035 OVC050
FM201200 31006KT P6SM SCT150



MET'MAP, la Météo Aéronautique d'un coup d'oeil ! - Copyright ORBIFLY Décembre 2007 - Disclaimer

ORBIFLY MET'MAP TEAM :

Programmation & Développement : Alexandra Zaïnal
Sur une idée originale de : Baudouin d'Aumeries
Assistance à la programmation : Marc-Olivier Méhu
Soutien technique & logistique : Manuel Goepfert

Contact : metmap@orbifly.com




SOURCES & CREDITS :

   NOAA       Earth
Advisory